Time;durP1;ratioP1;P1;durP2;ratioP2;P2;SDS_P1;SDS_P2;PMS_P1;PMS_P2;Temp;Humidity;BMP_temperature;BMP_pressure;BME280_temperature;BME280_humidity;BME280_pressure;Samples;Min_cycle;Max_cycle;Signal;HPM_P1;HPM_P2
2022/08/31 00:06:16;;;;;;;;;9.00;6.00;;;;;21.66;49.12;101202.50;5098145;27;45450;-57
2022/08/31 00:08:41;;;;;;;;;7.00;7.00;;;;;21.63;49.50;101198.22;5095351;27;45452;-60
2022/08/31 00:11:09;;;;;;;;;6.67;6.67;;;;;21.65;49.41;101208.91;5093729;27;45443;-56
2022/08/31 00:13:35;;;;;;;;;8.00;5.67;;;;;21.59;48.97;101199.47;5091756;27;45800;-57
2022/08/31 00:16:02;;;;;;;;;5.00;5.00;;;;;21.62;49.11;101201.09;5097961;27;45353;-57
2022/08/31 00:18:27;;;;;;;;;9.33;7.67;;;;;21.64;48.97;101199.94;5097154;27;45455;-57
2022/08/31 00:20:53;;;;;;;;;5.00;5.00;;;;;21.66;48.84;101192.53;5096129;27;45537;-54
2022/08/31 00:23:19;;;;;;;;;6.67;6.67;;;;;21.68;48.73;101201.34;5097220;27;45536;-56
2022/08/31 00:25:46;;;;;;;;;6.00;6.00;;;;;21.57;49.11;101177.13;5100044;27;45360;-56
2022/08/31 00:28:13;;;;;;;;;7.00;6.00;;;;;21.55;49.27;101189.09;5088859;27;45847;-55
2022/08/31 00:30:40;;;;;;;;;6.00;6.00;;;;;21.47;49.58;101187.94;5095464;27;45504;-55
2022/08/31 00:33:05;;;;;;;;;5.00;5.00;;;;;21.42;49.52;101189.38;5094867;27;45620;-56
2022/08/31 00:35:34;;;;;;;;;5.00;5.00;;;;;21.38;49.48;101187.97;5096144;27;45440;-56
2022/08/31 00:38:01;;;;;;;;;2.33;2.33;;;;;21.31;49.50;101186.81;5096817;27;45424;-57
2022/08/31 00:40:27;;;;;;;;;3.33;3.33;;;;;21.26;50.06;101191.78;5095434;27;45346;-55
2022/08/31 00:42:54;;;;;;;;;5.33;5.33;;;;;21.14;50.05;101183.75;5094317;27;45501;-57
2022/08/31 00:45:19;;;;;;;;;7.33;6.00;;;;;21.23;50.06;101189.34;5097062;27;45393;-56
2022/08/31 00:47:45;;;;;;;;;5.33;5.33;;;;;21.26;49.97;101195.34;5099462;27;45332;-55
2022/08/31 00:50:13;;;;;;;;;6.00;4.67;;;;;21.19;49.86;101186.88;5094789;27;46026;-56
2022/08/31 00:52:44;;;;;;;;;5.00;5.00;;;;;21.15;50.14;101185.47;5091300;27;45400;-57
2022/08/31 00:55:21;;;;;;;;;4.00;4.00;;;;;21.13;50.02;101190.16;5091877;27;45210;-56
2022/08/31 00:57:50;;;;;;;;;6.00;5.00;;;;;21.08;50.38;101202.38;5094178;27;45392;-56
2022/08/31 01:00:22;;;;;;;;;8.67;6.00;;;;;21.02;50.08;101198.41;5091964;27;48439;-56
2022/08/31 01:02:48;;;;;;;;;6.00;4.00;;;;;20.99;50.23;101198.69;5090064;27;45573;-56
2022/08/31 01:05:16;;;;;;;;;5.00;5.00;;;;;20.93;50.79;101204.63;5094223;27;45401;-55
2022/08/31 01:07:46;;;;;;;;;4.00;4.00;;;;;20.91;50.60;101201.22;5078774;27;47032;-58
2022/08/31 01:10:13;;;;;;;;;5.67;5.00;;;;;20.87;50.35;101194.38;5078801;27;46277;-56
2022/08/31 01:12:40;;;;;;;;;5.00;5.00;;;;;20.92;50.49;101205.63;5097725;27;45400;-55
2022/08/31 01:15:08;;;;;;;;;5.67;5.67;;;;;20.87;50.51;101205.19;5102194;27;45241;-57
2022/08/31 01:17:35;;;;;;;;;7.67;6.00;;;;;20.82;50.85;101197.47;5096080;27;45593;-56
2022/08/31 01:20:21;;;;;;;;;4.33;4.33;;;;;20.80;50.90;101204.88;5091461;27;46020;-57
2022/08/31 01:23:11;;;;;;;;;6.00;6.00;;;;;20.76;51.13;101213.41;5099717;27;46017;-56
2022/08/31 01:25:40;;;;;;;;;4.67;4.00;;;;;20.66;51.24;101207.09;5098074;27;45529;-56
2022/08/31 01:28:07;;;;;;;;;5.00;5.00;;;;;20.56;51.55;101201.63;5098501;27;45542;-58
2022/08/31 01:30:33;;;;;;;;;4.00;3.67;;;;;20.40;51.73;101196.69;5097022;27;45464;-56
2022/08/31 01:32:59;;;;;;;;;7.67;6.33;;;;;20.45;52.09;101205.31;5095473;27;45372;-59
2022/08/31 01:35:26;;;;;;;;;4.67;3.67;;;;;20.40;52.42;101199.41;5095907;27;45483;-56
2022/08/31 01:37:52;;;;;;;;;6.67;6.00;;;;;20.37;52.18;101196.97;5097737;27;45669;-56
2022/08/31 01:40:18;;;;;;;;;7.67;4.67;;;;;20.35;52.02;101193.56;5097615;27;45424;-56
2022/08/31 01:42:44;;;;;;;;;5.33;5.33;;;;;20.35;52.36;101207.06;5107023;27;45458;-57
2022/08/31 01:45:10;;;;;;;;;8.67;6.00;;;;;20.34;52.33;101208.06;5100592;27;45425;-56
2022/08/31 01:47:37;;;;;;;;;3.00;3.00;;;;;20.32;52.42;101218.16;5098294;27;45488;-57
2022/08/31 01:50:04;;;;;;;;;5.33;4.00;;;;;20.34;52.14;101208.06;5098713;27;46201;-58
2022/08/31 01:52:29;;;;;;;;;5.33;5.33;;;;;20.35;52.28;101204.38;5098707;27;45363;-56
2022/08/31 01:54:55;;;;;;;;;9.00;7.33;;;;;20.30;52.26;101203.91;5097059;27;45432;-56
2022/08/31 01:57:21;;;;;;;;;7.00;6.00;;;;;20.31;52.03;101208.31;5098620;27;45505;-57
2022/08/31 01:59:47;;;;;;;;;6.67;6.67;;;;;20.20;52.39;101195.75;5085854;27;46443;-58
2022/08/31 02:02:12;;;;;;;;;6.00;6.00;;;;;20.21;52.74;101208.28;5103422;27;45428;-58
2022/08/31 02:04:38;;;;;;;;;5.00;5.00;;;;;20.21;52.59;101212.81;5097197;27;45448;-55
2022/08/31 02:07:03;;;;;;;;;6.67;6.67;;;;;20.17;52.51;101206.81;5097344;27;45493;-54
2022/08/31 02:09:29;;;;;;;;;8.00;6.67;;;;;20.13;53.02;101212.63;5078494;27;46345;-56
2022/08/31 02:11:54;;;;;;;;;4.67;4.67;;;;;20.09;52.89;101217.44;5090398;27;46771;-56
2022/08/31 02:14:20;;;;;;;;;6.67;6.33;;;;;20.06;52.64;101215.00;5098609;27;45273;-56
2022/08/31 02:16:47;;;;;;;;;6.67;6.67;;;;;20.09;52.67;101220.13;5097229;27;45394;-57
2022/08/31 02:19:16;;;;;;;;;4.67;4.67;;;;;20.09;52.93;101213.88;5090771;27;46481;-55
2022/08/31 02:21:42;;;;;;;;;7.00;5.00;;;;;20.08;52.59;101207.63;5093387;27;45230;-55
2022/08/31 02:24:10;;;;;;;;;5.67;5.00;;;;;20.01;53.20;101212.69;5097237;27;47800;-56
2022/08/31 02:26:35;;;;;;;;;7.00;7.00;;;;;19.97;53.26;101215.78;5097222;27;45659;-57
2022/08/31 02:29:01;;;;;;;;;7.67;6.33;;;;;19.93;53.65;101217.91;5097063;27;47322;-56
2022/08/31 02:31:26;;;;;;;;;5.00;5.00;;;;;19.88;53.71;101217.41;5097955;27;45348;-55
2022/08/31 02:33:51;;;;;;;;;5.00;5.00;;;;;19.87;53.36;101231.91;5097908;27;45532;-57
2022/08/31 02:36:17;;;;;;;;;5.00;5.00;;;;;19.85;53.35;101222.22;5094547;27;45505;-56
2022/08/31 02:38:42;;;;;;;;;7.00;5.00;;;;;19.81;53.10;101218.94;5095924;27;47261;-56
2022/08/31 02:41:08;;;;;;;;;5.00;4.00;;;;;19.89;52.94;101219.13;5101218;27;45496;-58
2022/08/31 02:43:33;;;;;;;;;7.00;7.00;;;;;19.90;52.64;101226.22;5085706;27;45471;-57
2022/08/31 02:46:00;;;;;;;;;8.00;5.33;;;;;19.89;52.84;101219.13;5098642;27;45443;-58
2022/08/31 02:48:25;;;;;;;;;5.67;5.67;;;;;19.82;52.92;101211.69;5097472;27;45975;-58
2022/08/31 02:50:52;;;;;;;;;6.00;6.00;;;;;19.90;53.12;101219.97;5098632;27;45302;-57
2022/08/31 02:53:20;;;;;;;;;4.00;4.00;;;;;19.85;53.01;101233.88;5098315;27;45367;-55
2022/08/31 02:55:46;;;;;;;;;6.33;6.33;;;;;19.87;52.95;101229.19;5092900;27;45502;-57
2022/08/31 02:58:12;;;;;;;;;3.67;3.67;;;;;19.77;53.01;101230.09;5097145;27;45508;-57
2022/08/31 03:00:42;;;;;;;;;6.00;4.33;;;;;19.77;53.39;101230.97;5096795;27;45248;-56
2022/08/31 03:03:07;;;;;;;;;6.00;6.00;;;;;19.72;53.42;101234.06;5077349;28;45228;-57
2022/08/31 03:05:33;;;;;;;;;5.00;5.00;;;;;19.73;53.41;101234.91;5084591;27;45696;-61
2022/08/31 03:07:58;;;;;;;;;4.00;4.00;;;;;19.70;53.62;101235.19;5096955;27;46156;-57
2022/08/31 03:10:24;;;;;;;;;7.67;5.67;;;;;19.66;53.92;101233.72;5102845;27;45441;-56
2022/08/31 03:12:51;;;;;;;;;5.00;4.67;;;;;19.67;53.00;101230.06;5100719;27;45519;-56
2022/08/31 03:15:19;;;;;;;;;5.00;5.00;;;;;19.70;53.31;101236.03;5094111;27;45472;-56
2022/08/31 03:17:44;;;;;;;;;6.00;6.00;;;;;19.67;53.57;101240.84;5096134;27;45448;-55
2022/08/31 03:20:11;;;;;;;;;6.00;6.00;;;;;19.64;53.03;101235.69;5108585;27;45432;-56
2022/08/31 03:22:37;;;;;;;;;4.00;4.00;;;;;19.70;53.10;101245.97;5096127;27;45368;-57
2022/08/31 03:25:05;;;;;;;;;4.33;4.33;;;;;19.64;53.13;101243.78;5096767;27;45320;-56
2022/08/31 03:27:31;;;;;;;;;7.33;6.00;;;;;19.57;53.37;101232.66;5092550;27;46689;-56
2022/08/31 03:29:57;;;;;;;;;7.00;5.00;;;;;19.61;53.38;101247.59;5096301;27;45430;-57
2022/08/31 03:32:26;;;;;;;;;8.00;6.00;;;;;19.63;53.36;101251.00;5097306;27;45515;-56
2022/08/31 03:34:53;;;;;;;;;7.00;7.00;;;;;19.58;53.24;101241.59;5094980;27;45922;-57
2022/08/31 03:37:20;;;;;;;;;7.33;7.33;;;;;19.54;53.70;101245.53;5094135;27;46123;-56
2022/08/31 03:39:46;;;;;;;;;6.00;6.00;;;;;19.48;53.57;101246.00;5103359;27;45497;-55
2022/08/31 03:42:12;;;;;;;;;6.33;5.33;;;;;19.47;53.41;101252.41;5094560;27;45542;-57
2022/08/31 03:44:37;;;;;;;;;6.67;4.00;;;;;19.50;53.59;101261.09;5097144;27;45554;-56
2022/08/31 03:47:02;;;;;;;;;5.00;4.00;;;;;19.43;53.41;101244.56;5097125;27;45431;-55
2022/08/31 03:49:28;;;;;;;;;8.00;6.00;;;;;19.48;53.45;101244.16;5095995;27;45774;-55
2022/08/31 03:51:53;;;;;;;;;5.00;5.00;;;;;19.49;53.34;101253.13;5098086;27;45790;-55
2022/08/31 03:54:19;;;;;;;;;7.00;4.00;;;;;19.45;53.36;101248.00;5093989;27;45886;-55
2022/08/31 03:56:45;;;;;;;;;7.00;4.00;;;;;19.41;53.64;101234.91;5095219;27;45494;-57
2022/08/31 03:59:11;;;;;;;;;5.67;5.67;;;;;19.45;53.80;101250.69;5094391;27;45393;-55
2022/08/31 04:01:37;;;;;;;;;3.67;3.67;;;;;19.40;53.59;101255.63;5087320;27;45448;-55
2022/08/31 04:04:02;;;;;;;;;9.33;4.67;;;;;19.36;53.50;101248.75;5091310;27;45219;-56
2022/08/31 04:06:28;;;;;;;;;8.67;6.00;;;;;19.34;53.94;101258.81;5086107;27;46370;-56
2022/08/31 04:08:54;;;;;;;;;7.67;5.67;;;;;19.29;54.36;101262.88;5094961;27;45342;-57
2022/08/31 04:11:20;;;;;;;;;7.67;7.67;;;;;19.22;54.36;101250.84;5095627;27;45226;-56
2022/08/31 04:13:46;;;;;;;;;6.67;6.33;;;;;19.14;54.57;101246.09;5097166;27;45518;-56
2022/08/31 04:16:15;;;;;;;;;5.33;5.00;;;;;19.18;54.28;101249.41;5094059;27;45516;-55
2022/08/31 04:18:42;;;;;;;;;4.67;4.33;;;;;19.12;54.35;101250.75;5093766;27;45455;-55
2022/08/31 04:21:16;;;;;;;;;10.67;6.00;;;;;19.13;54.56;101249.75;5097613;27;45727;-49
2022/08/31 04:23:42;;;;;;;;;7.00;5.67;;;;;19.11;54.45;101262.50;5096890;27;45347;-55
2022/08/31 04:26:20;;;;;;;;;5.00;4.33;;;;;19.17;53.92;101262.03;5094778;27;46447;-55
2022/08/31 04:28:46;;;;;;;;;7.00;7.00;;;;;19.14;54.30;101260.44;5090822;27;45380;-50
2022/08/31 04:31:12;;;;;;;;;7.33;5.67;;;;;19.14;54.00;101264.94;5092617;27;45326;-54
2022/08/31 04:33:39;;;;;;;;;6.00;4.67;;;;;19.18;54.21;101270.97;5096248;27;45388;-51
2022/08/31 04:36:12;;;;;;;;;4.33;4.33;;;;;19.15;54.22;101264.00;5095396;27;46590;-55
2022/08/31 04:38:41;;;;;;;;;7.00;6.00;;;;;19.13;54.17;101260.53;5095463;27;45438;-52
2022/08/31 04:41:08;;;;;;;;;7.33;5.33;;;;;19.13;54.27;101268.63;5100284;27;45304;-55
2022/08/31 04:43:36;;;;;;;;;7.67;6.67;;;;;19.08;54.80;101268.16;5098186;27;45444;-53
2022/08/31 04:46:04;;;;;;;;;7.33;5.00;;;;;19.05;54.52;101263.88;5098079;27;46578;-51
2022/08/31 04:48:29;;;;;;;;;6.00;6.00;;;;;19.08;54.46;101262.78;5098648;27;45475;-53
2022/08/31 04:51:16;;;;;;;;;4.67;4.67;;;;;19.02;54.67;101255.19;5097335;27;45321;-53
2022/08/31 04:53:42;;;;;;;;;7.00;7.00;;;;;19.03;54.83;101259.59;5098985;27;45381;-61
2022/08/31 04:56:13;;;;;;;;;6.00;6.00;;;;;19.00;54.72;101265.22;5086749;27;46654;-58
2022/08/31 04:58:43;;;;;;;;;6.67;5.33;;;;;18.91;55.56;101268.69;5097696;27;45490;-54
2022/08/31 05:01:11;;;;;;;;;4.67;4.00;;;;;18.79;55.50;101249.81;5095720;27;45464;-52
2022/08/31 05:03:37;;;;;;;;;9.00;7.67;;;;;18.82;55.49;101256.78;5100018;27;45947;-51
2022/08/31 05:06:03;;;;;;;;;4.00;4.00;;;;;18.79;55.70;101257.91;5099829;27;45554;-61
2022/08/31 05:08:29;;;;;;;;;5.00;5.00;;;;;18.83;55.30;101253.09;5081093;27;45480;-56
2022/08/31 05:10:55;;;;;;;;;6.00;6.00;;;;;18.84;54.96;101257.50;5079845;27;45279;-58
2022/08/31 05:13:20;;;;;;;;;7.00;7.00;;;;;18.88;54.85;101266.19;5102014;27;45470;-52
2022/08/31 05:15:46;;;;;;;;;5.00;5.00;;;;;18.90;55.51;101262.44;5120597;27;46157;-55
2022/08/31 05:18:11;;;;;;;;;8.00;6.67;;;;;18.88;55.43;101252.72;5120498;27;45402;-59
2022/08/31 05:20:38;;;;;;;;;7.67;6.67;;;;;18.80;55.65;101254.22;5116212;27;45376;-58
2022/08/31 05:23:05;;;;;;;;;6.33;6.00;;;;;18.76;55.51;101251.91;5100354;27;45278;-59
2022/08/31 05:25:30;;;;;;;;;7.67;6.33;;;;;18.79;55.73;101260.59;5099354;27;45270;-55
2022/08/31 05:27:56;;;;;;;;;8.00;7.33;;;;;18.73;55.43;101255.66;5097444;27;45450;-58
2022/08/31 05:30:22;;;;;;;;;4.00;3.67;;;;;18.79;56.02;101270.50;5092233;27;45585;-60
2022/08/31 05:32:47;;;;;;;;;11.00;8.67;;;;;18.81;55.36;101268.56;5082007;27;45464;-52
2022/08/31 05:35:13;;;;;;;;;5.33;5.00;;;;;18.78;55.94;101258.88;5099327;27;45991;-51
2022/08/31 05:37:39;;;;;;;;;10.67;9.00;;;;;18.83;55.31;101264.75;5107619;27;45759;-55
2022/08/31 05:40:06;;;;;;;;;8.00;8.00;;;;;18.82;55.73;101268.41;5101742;27;45507;-57
2022/08/31 05:42:32;;;;;;;;;11.00;8.67;;;;;18.81;55.40;101264.00;5097170;27;45480;-60
2022/08/31 05:44:57;;;;;;;;;9.00;9.00;;;;;18.87;55.62;101265.34;5096052;27;48107;-55
2022/08/31 05:47:23;;;;;;;;;8.33;7.67;;;;;18.91;55.44;101257.91;5096121;27;45235;-51
2022/08/31 05:49:49;;;;;;;;;10.00;6.00;;;;;18.95;55.50;101259.34;5095019;27;45262;-57
2022/08/31 05:52:14;;;;;;;;;13.67;7.33;;;;;18.95;56.18;101264.75;5101411;27;45499;-58
2022/08/31 05:54:40;;;;;;;;;8.33;8.33;;;;;18.98;55.74;101272.56;5097834;27;45238;-58
2022/08/31 05:57:06;;;;;;;;;13.33;13.33;;;;;18.95;55.75;101270.13;5099194;27;45259;-59
2022/08/31 05:59:32;;;;;;;;;7.33;7.00;;;;;18.99;55.16;101271.59;5100569;27;45637;-60
2022/08/31 06:01:59;;;;;;;;;6.33;6.33;;;;;18.99;55.43;101268.91;5097860;27;45597;-63
2022/08/31 06:04:26;;;;;;;;;8.67;6.00;;;;;18.97;55.56;101279.81;5092427;27;45524;-59
2022/08/31 06:06:52;;;;;;;;;8.33;7.00;;;;;19.02;55.65;101276.75;5094534;27;45313;-52
2022/08/31 06:09:18;;;;;;;;;9.00;7.67;;;;;19.06;55.22;101270.13;5098302;27;45501;-58
2022/08/31 06:11:44;;;;;;;;;7.67;6.00;;;;;19.07;55.75;101267.31;5095070;27;45469;-51
2022/08/31 06:14:11;;;;;;;;;8.33;7.67;;;;;19.11;55.55;101268.75;5098397;27;46903;-56
2022/08/31 06:16:38;;;;;;;;;6.00;6.00;;;;;19.03;55.90;101268.56;5100265;27;45378;-57
2022/08/31 06:19:06;;;;;;;;;6.00;4.00;;;;;19.02;55.62;101277.63;5095974;27;47338;-51
2022/08/31 06:21:38;;;;;;;;;9.00;7.33;;;;;19.07;55.47;101269.16;5097796;27;45578;-52
2022/08/31 06:24:04;;;;;;;;;10.00;7.00;;;;;19.12;55.69;101266.94;5097458;27;45923;-50
2022/08/31 06:26:33;;;;;;;;;10.00;6.67;;;;;19.08;55.58;101265.47;5077145;27;45647;-49
2022/08/31 06:29:02;;;;;;;;;10.67;10.00;;;;;19.03;55.69;101265.84;5097832;27;45426;-59
2022/08/31 06:31:45;;;;;;;;;10.00;9.33;;;;;19.14;55.47;101273.03;5095641;27;46980;-55
2022/08/31 06:34:10;;;;;;;;;6.00;6.00;;;;;19.17;56.17;101275.50;5095154;27;46338;-54
2022/08/31 06:36:35;;;;;;;;;7.00;6.67;;;;;19.19;55.79;101268.16;5098075;27;45344;-59
2022/08/31 06:39:02;;;;;;;;;9.67;9.67;;;;;19.18;55.53;101277.22;5093480;27;45637;-63
2022/08/31 06:41:35;;;;;;;;;14.67;13.67;;;;;19.26;55.48;101279.28;5090044;27;45504;-57
2022/08/31 06:44:04;;;;;;;;;7.00;7.00;;;;;19.29;55.37;101277.22;5099810;27;46587;-56
2022/08/31 06:46:31;;;;;;;;;7.67;7.67;;;;;19.38;55.17;101278.28;5099045;27;45592;-53
2022/08/31 06:48:57;;;;;;;;;11.67;7.67;;;;;19.41;55.31;101280.75;5099765;27;46065;-59
2022/08/31 06:51:24;;;;;;;;;8.33;8.00;;;;;19.41;55.29;101272.66;5098561;27;45449;-60
2022/08/31 06:53:51;;;;;;;;;11.33;11.33;;;;;19.44;55.31;101275.94;5095221;27;45549;-55
2022/08/31 06:56:19;;;;;;;;;7.33;7.33;;;;;19.49;54.99;101283.66;5096050;27;45235;-52
2022/08/31 06:58:45;;;;;;;;;13.67;11.00;;;;;19.44;55.02;101289.44;5096809;27;45491;-52
2022/08/31 07:01:17;;;;;;;;;10.33;8.67;;;;;19.44;54.82;101292.13;5094949;27;45544;-55
2022/08/31 07:03:44;;;;;;;;;7.67;7.67;;;;;19.51;55.00;101295.16;5088947;27;45487;-51
2022/08/31 07:06:21;;;;;;;;;9.00;9.00;;;;;19.57;54.77;101293.84;5097265;27;45323;-51
2022/08/31 07:08:51;;;;;;;;;10.33;9.00;;;;;19.64;54.47;101289.66;5097679;27;45400;-61
2022/08/31 07:11:26;;;;;;;;;10.00;10.00;;;;;19.71;54.73;101291.72;5093540;27;45558;-57
2022/08/31 07:13:53;;;;;;;;;6.33;6.33;;;;;19.71;54.75;101285.47;5096232;27;45557;-56
2022/08/31 07:16:22;;;;;;;;;3.67;3.00;;;;;19.68;55.18;101293.81;5082232;27;45586;-54
2022/08/31 07:18:48;;;;;;;;;10.33;8.00;;;;;19.74;54.74;101290.59;5084591;27;45491;-57
2022/08/31 07:21:18;;;;;;;;;10.00;8.33;;;;;19.75;54.56;101276.13;5091091;27;45672;-56
2022/08/31 07:23:45;;;;;;;;;10.67;9.00;;;;;19.88;54.71;101282.19;5077312;27;46008;-51
2022/08/31 07:26:17;;;;;;;;;9.67;9.67;;;;;19.96;54.37;101285.13;5086782;27;45509;-55
2022/08/31 07:28:42;;;;;;;;;9.33;9.33;;;;;19.99;53.90;101275.91;5097424;27;45471;-54
2022/08/31 07:31:10;;;;;;;;;11.00;11.00;;;;;20.04;54.15;101282.63;5093672;27;45475;-54
2022/08/31 07:33:40;;;;;;;;;10.00;8.00;;;;;20.03;54.31;101270.09;5090341;27;46441;-51
2022/08/31 07:36:09;;;;;;;;;14.00;10.33;;;;;20.12;54.32;101279.28;5096099;27;45187;-59
2022/08/31 07:44:05;;;;;;;;;12.67;11.00;;;;;20.16;53.73;101288.81;5096617;27;45891;-67
2022/08/31 07:46:30;;;;;;;;;8.67;8.67;;;;;20.13;53.61;101270.19;5084215;27;45566;-60
2022/08/31 07:48:59;;;;;;;;;10.33;9.33;;;;;20.22;53.85;101279.34;5096708;27;45438;-58
2022/08/31 07:51:25;;;;;;;;;10.00;8.00;;;;;20.25;53.92;101279.94;5092637;27;46918;-59
2022/08/31 07:53:52;;;;;;;;;7.00;5.67;;;;;20.29;54.21;101294.03;5089285;27;46448;-62
2022/08/31 07:56:20;;;;;;;;;12.00;10.33;;;;;20.29;54.11;101285.91;5080705;27;45538;-60
2022/08/31 07:58:48;;;;;;;;;15.33;13.00;;;;;20.29;54.15;101280.53;5090977;27;45392;-63
2022/08/31 08:01:17;;;;;;;;;10.33;10.33;;;;;20.27;54.04;101279.81;5089948;27;45215;-61
2022/08/31 08:03:43;;;;;;;;;10.33;9.67;;;;;20.30;53.56;101287.63;5093131;27;46079;-62
2022/08/31 08:06:14;;;;;;;;;14.00;12.67;;;;;20.37;53.71;101291.53;5096714;27;45277;-61
2022/08/31 08:08:42;;;;;;;;;13.67;11.00;;;;;20.37;53.90;101293.38;5091682;27;45379;-61
2022/08/31 08:11:15;;;;;;;;;14.33;11.67;;;;;20.42;53.69;101274.94;5096432;27;45416;-60
2022/08/31 08:13:40;;;;;;;;;14.00;14.00;;;;;20.48;53.07;101274.44;5081026;27;46514;-63
2022/08/31 08:16:06;;;;;;;;;11.67;11.67;;;;;20.51;53.31;101280.41;5094585;27;45537;-63
2022/08/31 08:18:31;;;;;;;;;12.00;10.00;;;;;20.59;53.67;101272.50;5088149;27;45399;-60
2022/08/31 08:20:57;;;;;;;;;10.33;8.67;;;;;20.67;53.04;101279.06;5099874;27;45973;-60
2022/08/31 08:23:23;;;;;;;;;11.67;11.67;;;;;20.62;52.69;101265.97;5090785;27;45788;-62
2022/08/31 08:25:50;;;;;;;;;15.00;12.00;;;;;20.69;53.23;101266.28;5094966;27;45527;-59
2022/08/31 08:28:20;;;;;;;;;12.00;11.67;;;;;20.77;53.01;101264.63;5096267;27;45285;-62
2022/08/31 08:30:47;;;;;;;;;12.00;12.00;;;;;20.80;52.85;101260.78;5087351;27;45441;-59
2022/08/31 08:33:14;;;;;;;;;9.00;9.00;;;;;20.86;52.89;101260.25;5091323;27;46126;-59
2022/08/31 08:35:40;;;;;;;;;15.33;14.00;;;;;20.98;53.25;101252.91;5093313;27;45492;-60
2022/08/31 08:38:06;;;;;;;;;13.67;10.67;;;;;21.13;52.69;101246.97;5091084;27;45542;-59
2022/08/31 08:40:40;;;;;;;;;14.00;14.00;;;;;21.53;51.47;101253.34;5097519;27;45762;-59
2022/08/31 08:43:07;;;;;;;;;13.33;11.67;;;;;21.88;51.19;101247.38;5097650;27;45408;-59
2022/08/31 08:45:34;;;;;;;;;9.33;8.00;;;;;22.19;49.90;101250.78;5097649;27;45405;-60
2022/08/31 08:48:00;;;;;;;;;8.67;8.67;;;;;22.55;50.56;101249.16;5089252;27;45560;-57
2022/08/31 08:50:28;;;;;;;;;11.33;11.33;;;;;22.97;49.59;101249.56;5083862;27;47016;-63
2022/08/31 08:52:56;;;;;;;;;12.00;12.00;;;;;23.34;48.05;101245.94;5091027;27;45901;-61
2022/08/31 08:55:33;;;;;;;;;9.33;9.33;;;;;23.73;47.03;101252.84;5099938;27;45307;-66
2022/08/31 08:58:01;;;;;;;;;9.67;9.00;;;;;24.06;46.83;101237.66;5095643;27;45235;-60
2022/08/31 09:00:27;;;;;;;;;13.33;11.00;;;;;24.39;45.19;101236.06;5098338;27;45646;-61
2022/08/31 09:03:02;;;;;;;;;13.50;11.00;;;;;24.68;46.24;101238.44;5100445;27;45391;-60
2022/08/31 09:05:50;;;;;;;;;9.00;7.75;;;;;25.14;45.93;101239.03;5096232;27;45478;-62
2022/08/31 09:08:31;;;;;;;;;10.00;10.00;;;;;25.48;44.41;101238.94;5088597;27;45405;-60
2022/08/31 09:11:05;;;;;;;;;9.75;9.75;;;;;25.78;43.48;101240.22;5086340;27;45492;-62
2022/08/31 09:13:58;;;;;;;;;13.25;11.75;;;;;25.98;42.35;101238.00;5096691;27;46340;-59
2022/08/31 09:16:48;;;;;;;;;13.00;11.50;;;;;25.99;41.50;101239.69;5095859;27;45361;-60
2022/08/31 09:19:17;;;;;;;;;9.50;9.00;;;;;26.05;41.63;101235.47;5099554;27;45352;-59
2022/08/31 09:21:57;;;;;;;;;10.50;10.50;;;;;26.12;40.68;101220.94;5098536;27;45368;-61
2022/08/31 09:24:26;;;;;;;;;10.50;9.00;;;;;26.43;41.86;101226.56;5092109;27;46260;-60
2022/08/31 09:27:44;;;;;;;;;12.40;10.20;;;;;26.83;41.54;101222.03;5098376;27;45454;-60
2022/08/31 09:30:16;;;;;;;;;10.00;8.50;;;;;26.88;40.77;101222.31;5075743;27;45375;-60
2022/08/31 09:32:53;;;;;;;;;13.75;10.50;;;;;27.23;40.39;101222.88;5111973;27;45470;-61
2022/08/31 09:35:45;;;;;;;;;7.80;7.20;;;;;27.45;39.72;101227.50;5120439;27;45447;-59
2022/08/31 09:38:25;;;;;;;;;8.00;8.00;;;;;27.64;39.18;101218.03;5102526;27;45430;-60
2022/08/31 09:40:51;;;;;;;;;10.40;8.20;;;;;27.80;39.73;101217.06;5096708;27;45200;-60
2022/08/31 09:43:24;;;;;;;;;10.40;7.40;;;;;27.92;38.02;101221.06;5081580;27;45482;-59
2022/08/31 09:46:28;;;;;;;;;9.00;9.00;;;;;27.89;38.61;101218.69;5097359;27;45261;-60
2022/08/31 09:48:57;;;;;;;;;8.80;8.80;;;;;28.02;37.79;101202.50;5096351;27;45246;-59
2022/08/31 09:51:38;;;;;;;;;9.00;8.00;;;;;28.05;38.01;101204.88;5093925;27;45487;-60
2022/08/31 09:56:57;;;;;;;;;11.00;10.00;;;;;28.13;39.04;101199.34;5078304;27;45347;-60
2022/08/31 09:59:45;;;;;;;;;10.20;7.00;;;;;28.00;38.11;101195.53;5086150;27;45397;-60
2022/08/31 10:02:21;;;;;;;;;10.60;8.40;;;;;28.06;38.93;101203.84;5081682;27;45444;-60
2022/08/31 10:04:57;;;;;;;;;8.00;8.00;;;;;28.20;38.70;101188.47;5110588;27;45468;-60
2022/08/31 10:07:50;;;;;;;;;10.80;8.60;;;;;28.11;38.29;101182.25;5096712;27;45404;-58
2022/08/31 10:10:24;;;;;;;;;8.60;8.60;;;;;27.63;38.47;101192.56;5098457;27;45241;-61
2022/08/31 10:13:05;;;;;;;;;14.00;10.75;;;;;27.39;39.53;101190.00;5098970;27;45365;-59
2022/08/31 10:15:38;;;;;;;;;14.00;11.75;;;;;27.22;39.37;101186.53;5090561;27;45462;-59
2022/08/31 10:18:12;;;;;;;;;7.00;6.60;;;;;26.95;39.72;101176.91;5094241;27;46274;-60
2022/08/31 10:20:45;;;;;;;;;9.80;9.80;;;;;26.58;40.60;101174.03;5087511;27;45518;-60
2022/08/31 10:23:24;;;;;;;;;10.00;9.00;;;;;26.50;40.70;101174.88;5096349;27;45500;-61
2022/08/31 10:26:09;;;;;;;;;7.50;7.00;;;;;26.30;41.09;101171.66;5091578;27;45485;-60
2022/08/31 10:28:35;;;;;;;;;13.00;13.00;;;;;26.24;41.24;101172.38;5097879;27;45472;-59
2022/08/31 10:31:12;;;;;;;;;14.00;13.00;;;;;26.14;41.53;101179.88;5088661;27;45509;-60
2022/08/31 10:36:47;;;;;;;;;11.00;6.75;;;;;26.16;42.04;101173.22;5058069;27;45479;-60
2022/08/31 10:39:32;;;;;;;;;19.00;15.00;;;;;26.18;41.56;101175.81;5100933;27;46302;-60
2022/08/31 10:42:04;;;;;;;;;11.25;10.25;;;;;26.09;41.62;101171.38;5094173;27;45564;-60
2022/08/31 10:44:55;;;;;;;;;18.75;15.25;;;;;26.02;41.92;101173.09;5090506;27;45326;-60
2022/08/31 10:47:24;;;;;;;;;27.75;22.25;;;;;25.98;41.55;101171.75;5097461;27;45352;-59
2022/08/31 10:49:57;;;;;;;;;20.00;17.75;;;;;26.01;42.43;101169.50;5094880;27;46091;-64
2022/08/31 10:53:04;;;;;;;;;8.75;8.50;;;;;26.07;41.86;101168.84;5078392;27;45231;-61
2022/08/31 10:55:45;;;;;;;;;13.25;10.25;;;;;26.04;41.78;101161.00;5091864;27;45522;-59
2022/08/31 10:58:33;;;;;;;;;12.75;11.75;;;;;26.13;41.68;101148.19;5096250;27;45422;-60
2022/08/31 11:01:21;;;;;;;;;10.25;9.50;;;;;26.16;41.36;101154.16;5095839;27;45415;-61
2022/08/31 11:03:53;;;;;;;;;11.00;9.50;;;;;26.22;41.50;101160.78;5096483;27;45296;-59
2022/08/31 11:06:46;;;;;;;;;9.00;9.00;;;;;26.29;41.55;101159.06;5084711;27;45274;-61
2022/08/31 11:09:21;;;;;;;;;13.75;10.50;;;;;26.38;41.24;101149.88;5092550;27;45586;-59
2022/08/31 11:12:05;;;;;;;;;9.25;9.25;;;;;26.43;41.29;101154.78;5080634;27;46320;-60
2022/08/31 11:15:05;;;;;;;;;9.25;9.25;;;;;26.40;40.49;101155.16;5075487;27;45437;-63
2022/08/31 11:17:54;;;;;;;;;9.75;8.25;;;;;26.38;40.91;101155.31;5077214;27;45182;-60
2022/08/31 11:20:22;;;;;;;;;10.00;10.00;;;;;26.47;40.83;101158.88;5077511;27;45367;-60
2022/08/31 11:23:14;;;;;;;;;10.25;10.25;;;;;26.63;41.35;101156.09;5076910;27;45671;-60
2022/08/31 11:26:15;;;;;;;;;9.20;8.40;;;;;26.82;40.14;101151.22;5077063;27;45507;-63
2022/08/31 11:28:53;;;;;;;;;8.00;6.25;;;;;26.95;40.29;101151.50;5077103;27;45173;-60
2022/08/31 11:31:29;;;;;;;;;9.00;9.00;;;;;27.07;40.21;101147.34;5076913;27;45628;-60
2022/08/31 11:34:08;;;;;;;;;13.50;11.50;;;;;27.09;39.94;101149.94;5077138;27;46191;-59
2022/08/31 11:36:50;;;;;;;;;12.40;9.20;;;;;27.22;39.86;101147.47;5077005;27;45330;-60
2022/08/31 11:39:32;;;;;;;;;10.40;10.40;;;;;27.21;39.07;101152.03;5097345;27;45410;-60
2022/08/31 11:42:00;;;;;;;;;11.00;10.00;;;;;27.15;39.61;101139.13;5097471;27;45362;-59
2022/08/31 11:44:28;;;;;;;;;9.00;9.00;;;;;27.30;38.66;101142.75;5097276;27;45421;-59
2022/08/31 11:47:08;;;;;;;;;19.50;12.50;;;;;27.51;39.19;101136.66;5097148;27;45348;-59
2022/08/31 11:49:36;;;;;;;;;9.75;9.75;;;;;27.61;37.84;101131.78;5097293;27;45376;-60
2022/08/31 11:52:09;;;;;;;;;3.75;3.75;;;;;27.70;39.04;101137.19;5097298;27;45601;-58